Aviation Digital Data Service (ADDS)

Output produced by METARs form (1824 UTC 22 November 2017)
found at http://www.aviationweather.gov/adds/metars/
 
OBBI 221830Z 12006KT CAVOK 26/17 Q1012 NOSIG
TAF OBBI 221700Z 2218/2400 16010KT 9000 FEW035 BKN100 
     BECMG 2302/2304 34012KT 
     PROB30 
     TEMPO 2303/2318 VRB20G35KT 4000 -TSRA SCT025 SCT040CB BKN080